createdAt,value
2019-01-05T00:01:39.393Z,101498.33
2019-01-05T00:04:12.430Z,101492.47
2019-01-05T00:06:58.778Z,101490.76
2019-01-05T00:09:45.565Z,101489.86
2019-01-05T00:12:15.819Z,101503.11
2019-01-05T00:14:46.299Z,101498.53
2019-01-05T00:17:28.807Z,101492.47
2019-01-05T00:20:07.983Z,101481.25
2019-01-05T00:22:41.592Z,101483.04
2019-01-05T00:25:12.170Z,101479.66
2019-01-05T00:27:42.475Z,101485.14
2019-01-05T00:30:15.220Z,101491.88
2019-01-05T00:32:48.458Z,101487.33
2019-01-05T00:35:49.910Z,101473.00
2019-01-05T00:38:37.997Z,101465.73
2019-01-05T00:41:20.960Z,101461.05
2019-01-05T00:43:51.576Z,101454.21
2019-01-05T00:46:28.822Z,101445.84
2019-01-05T00:49:18.588Z,101443.16
2019-01-05T00:52:07.405Z,101439.14
2019-01-05T00:54:37.662Z,101435.98
2019-01-05T00:57:25.334Z,101430.01
2019-01-05T01:00:10.902Z,101421.48
2019-01-05T01:02:41.646Z,101416.57
2019-01-05T01:05:24.023Z,101412.78
2019-01-05T01:07:54.275Z,101411.03
2019-01-05T01:10:24.892Z,101407.00
2019-01-05T01:13:01.673Z,101410.88
2019-01-05T01:15:47.884Z,101400.49
2019-01-05T01:18:18.483Z,101398.12
2019-01-05T01:20:48.977Z,101388.45
2019-01-05T01:23:35.523Z,101376.20
2019-01-05T01:26:23.341Z,101376.52
2019-01-05T01:29:02.857Z,101379.13
2019-01-05T01:31:48.242Z,101373.03
2019-01-05T01:34:36.730Z,101368.27
2019-01-05T01:37:09.722Z,101364.45
2019-01-05T01:39:41.784Z,101361.20
2019-01-05T01:42:13.007Z,101359.54
2019-01-05T01:44:43.246Z,101349.74
2019-01-05T01:47:14.527Z,101350.42
2019-01-05T01:49:46.221Z,101344.36
2019-01-05T01:52:16.552Z,101340.67
2019-01-05T01:55:02.779Z,101335.98
2019-01-05T01:57:50.235Z,101338.37
2019-01-05T02:00:20.994Z,101331.95
2019-01-05T02:03:05.987Z,101329.78
2019-01-05T02:05:38.325Z,101322.50
2019-01-05T02:08:18.497Z,101322.05
2019-01-05T02:10:51.864Z,101315.39
2019-01-05T02:13:30.412Z,101319.56
2019-01-05T02:16:19.370Z,101311.31
2019-01-05T02:19:08.742Z,101311.39
2019-01-05T02:22:03.053Z,101300.50
2019-01-05T02:24:54.570Z,101298.31
2019-01-05T02:27:30.718Z,101286.30
2019-01-05T02:30:32.372Z,101277.59
2019-01-05T02:33:29.750Z,101273.63
2019-01-05T02:36:14.775Z,101268.28
2019-01-05T02:39:22.198Z,101257.70
2019-01-05T02:42:26.745Z,101259.73
2019-01-05T02:45:19.515Z,101261.45
2019-01-05T02:48:42.660Z,101252.21
2019-01-05T02:51:41.568Z,101249.73
2019-01-05T02:54:23.643Z,101237.19
2019-01-05T02:57:11.774Z,101234.08
2019-01-05T03:00:21.383Z,101236.58
2019-01-05T03:03:03.402Z,101219.70
2019-01-05T03:05:37.114Z,101210.83
2019-01-05T03:08:35.428Z,101203.80
2019-01-05T03:11:29.724Z,101200.53
2019-01-05T03:14:38.151Z,101198.05
2019-01-05T03:17:27.934Z,101195.97
2019-01-05T03:20:15.804Z,101202.27
2019-01-05T03:23:08.620Z,101199.00
2019-01-05T03:26:28.419Z,101197.64
2019-01-05T03:29:48.632Z,101189.16
2019-01-05T03:32:45.792Z,101188.11
2019-01-05T03:35:42.205Z,101184.80
2019-01-05T03:38:30.563Z,101182.29
2019-01-05T03:41:18.796Z,101182.43
2019-01-05T03:44:06.884Z,101173.49
2019-01-05T03:47:15.088Z,101176.48
2019-01-05T03:50:19.398Z,101171.36
2019-01-05T03:53:09.085Z,101165.95
2019-01-05T03:56:05.145Z,101164.89
2019-01-05T03:59:05.717Z,101174.25
2019-01-05T04:01:50.156Z,101163.09
2019-01-05T04:04:51.924Z,101160.44
2019-01-05T04:07:28.419Z,101166.70
2019-01-05T04:10:19.495Z,101144.91
2019-01-05T04:13:27.455Z,101152.48
2019-01-05T04:16:33.983Z,101156.39
2019-01-05T04:19:28.273Z,101158.29
2019-01-05T04:22:30.350Z,101159.95
2019-01-05T04:25:36.349Z,101156.73
2019-01-05T04:28:56.688Z,101155.63
2019-01-05T04:31:49.679Z,101155.67
2019-01-05T04:34:57.556Z,101150.55
2019-01-05T04:37:49.005Z,101152.74
2019-01-05T04:41:00.169Z,101153.52
2019-01-05T04:43:52.868Z,101151.09
2019-01-05T04:46:48.622Z,101146.21
2019-01-05T04:49:55.323Z,101149.19
2019-01-05T04:53:06.505Z,101151.58
2019-01-05T04:56:16.567Z,101150.84
2019-01-05T04:59:11.482Z,101147.58
2019-01-05T05:02:19.860Z,101145.69
2019-01-05T05:05:34.050Z,101150.66
2019-01-05T05:08:45.170Z,101156.92
2019-01-05T05:11:41.119Z,101153.38
2019-01-05T05:14:20.381Z,101153.08
2019-01-05T05:17:02.327Z,101149.56
2019-01-05T05:19:54.066Z,101153.13
2019-01-05T05:22:48.371Z,101141.06
2019-01-05T05:25:40.879Z,101143.88
2019-01-05T05:28:41.659Z,101143.83
2019-01-05T05:31:40.327Z,101139.78
2019-01-05T05:34:42.005Z,101140.03
2019-01-05T05:37:41.901Z,101137.59
2019-01-05T05:40:49.396Z,101141.39
2019-01-05T05:43:59.236Z,101135.94
2019-01-05T05:47:06.159Z,101136.77
2019-01-05T05:50:07.927Z,101132.39
2019-01-05T05:53:29.700Z,101130.23
2019-01-05T05:56:22.439Z,101132.67
2019-01-05T05:59:28.946Z,101128.09
2019-01-05T06:02:17.397Z,101139.29
2019-01-05T06:05:11.530Z,101130.81
2019-01-05T06:08:23.614Z,101133.84
2019-01-05T06:11:28.673Z,101130.28
2019-01-05T06:14:21.381Z,101131.89
2019-01-05T06:17:07.048Z,101136.03
2019-01-05T06:20:23.015Z,101148.05
2019-01-05T06:23:29.307Z,101153.21
2019-01-05T06:26:34.458Z,101158.67
2019-01-05T06:29:19.955Z,101164.38
2019-01-05T06:32:21.728Z,101160.37
2019-01-05T06:35:03.636Z,101156.27
2019-01-05T06:37:58.421Z,101154.33
2019-01-05T06:41:04.785Z,101159.25
2019-01-05T06:44:09.092Z,101156.56
2019-01-05T06:47:07.747Z,101156.28
2019-01-05T06:50:02.815Z,101160.91
2019-01-05T06:53:01.679Z,101159.54
2019-01-05T06:56:15.088Z,101147.80
2019-01-05T06:58:59.455Z,101150.78
2019-01-05T07:02:01.446Z,101174.05
2019-01-05T07:05:24.718Z,101191.20
2019-01-05T07:08:45.320Z,101190.13
2019-01-05T07:11:30.165Z,101208.64
2019-01-05T07:14:45.594Z,101218.48
2019-01-05T07:17:24.843Z,101222.28
2019-01-05T07:20:48.231Z,101232.61
2019-01-05T07:23:58.170Z,101233.72
2019-01-05T07:27:05.931Z,101238.94
2019-01-05T07:30:12.691Z,101235.69
2019-01-05T07:32:51.813Z,101243.33
2019-01-05T07:35:42.849Z,101241.42
2019-01-05T07:38:33.948Z,101250.44
2019-01-05T07:41:23.424Z,101258.38
2019-01-05T07:44:34.007Z,101277.19
2019-01-05T07:47:33.057Z,101275.82
2019-01-05T07:50:41.145Z,101284.58
2019-01-05T07:53:17.277Z,101278.80
2019-01-05T07:56:21.879Z,101293.02
2019-01-05T07:59:11.757Z,101303.11
2019-01-05T08:02:07.493Z,101300.67
2019-01-05T08:05:15.159Z,101304.28
2019-01-05T08:08:31.603Z,101311.05
2019-01-05T08:11:45.915Z,101302.33
2019-01-05T08:15:03.242Z,101319.52
2019-01-05T08:17:52.936Z,101320.36
2019-01-05T08:21:14.980Z,101317.58
2019-01-05T08:24:10.913Z,101314.66
2019-01-05T08:27:23.432Z,101322.89
2019-01-05T08:30:24.065Z,101320.16
2019-01-05T08:33:06.143Z,101322.36
2019-01-05T08:36:03.848Z,101324.12
2019-01-05T08:38:52.213Z,101316.47
2019-01-05T08:41:52.492Z,101322.41
2019-01-05T08:44:46.467Z,101331.52
2019-01-05T08:47:59.073Z,101327.48
2019-01-05T08:51:10.509Z,101326.66
2019-01-05T08:54:01.838Z,101337.33
2019-01-05T08:57:04.989Z,101330.30
2019-01-05T09:00:27.197Z,101344.73
2019-01-05T09:03:18.611Z,101348.78
2019-01-05T09:06:23.544Z,101349.56
2019-01-05T09:09:21.100Z,101350.94
2019-01-05T09:12:39.845Z,101357.76
2019-01-05T09:15:55.616Z,101359.59
2019-01-05T09:19:02.018Z,101363.75
2019-01-05T09:21:59.576Z,101366.47
2019-01-05T09:24:51.000Z,101374.66
2019-01-05T09:27:59.315Z,101358.86
2019-01-05T09:31:14.950Z,101367.31
2019-01-05T09:33:51.102Z,101373.75
2019-01-05T09:36:27.488Z,101369.16
2019-01-05T09:42:52.217Z,101373.68
2019-01-05T09:45:57.645Z,101364.75
2019-01-05T09:52:04.154Z,101370.33
2019-01-05T09:55:03.114Z,101374.29
2019-01-05T09:58:03.582Z,101372.71
2019-01-05T10:00:40.340Z,101379.58
2019-01-05T10:03:47.853Z,101368.26
2019-01-05T10:06:52.075Z,101377.64
2019-01-05T10:09:53.546Z,101384.64
2019-01-05T10:12:28.210Z,101382.53
2019-01-05T10:15:42.376Z,101383.95
2019-01-05T10:18:56.021Z,101387.48
2019-01-05T10:22:14.883Z,101388.96
2019-01-05T10:25:05.342Z,101386.13
2019-01-05T10:27:50.460Z,101382.97
2019-01-05T10:30:42.969Z,101361.67
2019-01-05T10:33:25.068Z,101362.98
2019-01-05T10:36:12.623Z,101305.22
2019-01-05T10:38:54.660Z,101295.64
2019-01-05T10:41:54.897Z,101295.45
2019-01-05T10:44:52.765Z,101367.42
2019-01-05T10:48:11.780Z,101354.12
2019-01-05T10:51:18.560Z,101331.25
2019-01-05T10:54:09.889Z,101367.80
2019-01-05T10:57:14.417Z,101378.30
2019-01-05T11:00:14.890Z,101380.78
2019-01-05T11:03:29.298Z,101379.63
2019-01-05T11:06:26.469Z,101393.84
2019-01-05T11:09:22.545Z,101389.36
2019-01-05T11:12:22.396Z,101387.25
2019-01-05T11:15:30.159Z,101394.61
2019-01-05T11:18:31.749Z,101390.20
2019-01-05T11:21:10.932Z,101391.78
2019-01-05T11:24:14.708Z,101391.24
2019-01-05T11:27:18.159Z,101398.41
2019-01-05T11:30:09.496Z,101403.88
2019-01-05T11:32:51.190Z,101409.87
2019-01-05T11:35:58.897Z,101407.86
2019-01-05T11:38:44.016Z,101414.13
2019-01-05T11:41:51.808Z,101416.64
2019-01-05T11:44:25.223Z,101406.37
2019-01-05T11:47:32.564Z,101406.70
2019-01-05T11:50:45.899Z,101413.40
2019-01-05T11:53:43.501Z,101416.52
2019-01-05T11:56:44.022Z,101410.70
2019-01-05T11:59:33.680Z,101415.13
2019-01-05T12:02:40.877Z,101420.09
2019-01-05T12:05:39.555Z,101428.44
2019-01-05T12:08:38.860Z,101431.19
2019-01-05T12:11:40.853Z,101430.65
2019-01-05T12:14:38.497Z,101430.49
2019-01-05T12:18:01.216Z,101433.70
2019-01-05T12:21:18.370Z,101432.00
2019-01-05T12:24:15.635Z,101430.28
2019-01-05T12:27:39.980Z,101437.06
2019-01-05T12:30:42.109Z,101449.55
2019-01-05T12:33:51.694Z,101449.16
2019-01-05T12:37:06.207Z,101455.59
2019-01-05T12:40:05.134Z,101459.41
2019-01-05T12:42:58.582Z,101455.33
2019-01-05T12:45:54.376Z,101461.38
2019-01-05T12:49:02.619Z,101461.78
2019-01-05T12:51:50.151Z,101464.27
2019-01-05T12:54:29.144Z,101460.37
2019-01-05T12:57:22.259Z,101461.23
2019-01-05T13:00:19.256Z,101467.21
2019-01-05T13:03:26.728Z,101463.86
2019-01-05T13:06:26.867Z,101457.31
2019-01-05T13:09:18.267Z,101460.59
2019-01-05T13:12:22.950Z,101469.62
2019-01-05T13:15:08.594Z,101466.02
2019-01-05T13:18:01.578Z,101475.55
2019-01-05T13:21:05.023Z,101473.43
2019-01-05T13:23:50.563Z,101475.05
2019-01-05T13:26:39.503Z,101486.48
2019-01-05T13:29:55.831Z,101486.69
2019-01-05T13:33:02.307Z,101490.03
2019-01-05T13:36:11.408Z,101493.56
2019-01-05T13:39:14.789Z,101496.30
2019-01-05T13:42:27.752Z,101493.31
2019-01-05T13:45:04.286Z,101500.06
2019-01-05T13:48:02.637Z,101505.61
2019-01-05T13:50:57.115Z,101508.84
2019-01-05T13:53:36.151Z,101510.65
2019-01-05T13:56:15.815Z,101513.44
2019-01-05T13:59:03.255Z,101521.73
2019-01-05T14:01:46.823Z,101522.34
2019-01-05T14:04:25.850Z,101525.91
2019-01-05T14:07:08.835Z,101535.30
2019-01-05T14:09:55.587Z,101534.61
2019-01-05T14:12:28.922Z,101537.79
2019-01-05T14:15:06.342Z,101543.20
2019-01-05T14:17:56.342Z,101545.22
2019-01-05T14:20:27.615Z,101541.83
2019-01-05T14:22:58.516Z,101547.94
2019-01-05T14:25:28.831Z,101550.16
2019-01-05T14:28:03.349Z,101549.66
2019-01-05T14:30:39.725Z,101546.92
2019-01-05T14:33:14.102Z,101541.11
2019-01-05T14:35:58.490Z,101544.63
2019-01-05T14:38:46.092Z,101545.50
2019-01-05T14:41:16.869Z,101541.35
2019-01-05T14:43:49.382Z,101547.53
2019-01-05T14:46:26.467Z,101551.34
2019-01-05T14:48:56.829Z,101558.41
2019-01-05T14:51:37.240Z,101560.42
2019-01-05T14:54:10.655Z,101563.45
2019-01-05T14:56:56.679Z,101575.45
2019-01-05T14:59:30.990Z,101574.20
2019-01-05T15:02:20.827Z,101579.23
2019-01-05T15:04:51.793Z,101582.37
2019-01-05T15:07:39.164Z,101588.44
2019-01-05T15:10:12.729Z,101597.72
2019-01-05T15:13:00.320Z,101596.52
2019-01-05T15:15:46.971Z,101600.78
2019-01-05T15:18:38.360Z,101607.13
2019-01-05T15:21:26.266Z,101605.34
2019-01-05T15:24:10.114Z,101603.67
2019-01-05T15:26:45.428Z,101606.98
2019-01-05T15:29:33.797Z,101607.54
2019-01-05T15:32:08.187Z,101612.38
2019-01-05T15:34:53.979Z,101610.10
2019-01-05T15:37:33.594Z,101608.69
2019-01-05T15:40:24.046Z,101610.48
2019-01-05T15:42:57.725Z,101615.22
2019-01-05T15:45:37.066Z,101610.59
2019-01-05T15:48:09.879Z,101613.83
2019-01-05T15:50:52.454Z,101613.83
2019-01-05T15:53:38.818Z,101617.47
2019-01-05T15:56:15.272Z,101621.09
2019-01-05T15:59:00.668Z,101631.27
2019-01-05T16:01:51.042Z,101635.88
2019-01-05T16:04:38.857Z,101632.23
2019-01-05T16:07:16.207Z,101635.18
2019-01-05T16:09:56.167Z,101637.53
2019-01-05T16:12:29.757Z,101637.94
2019-01-05T16:15:03.258Z,101643.39
2019-01-05T16:17:40.014Z,101644.09
2019-01-05T16:20:27.060Z,101645.34
2019-01-05T16:22:58.203Z,101646.66
2019-01-05T16:25:31.462Z,101645.58
2019-01-05T16:28:17.117Z,101655.34
2019-01-05T16:31:04.154Z,101643.52
2019-01-05T16:33:35.533Z,101649.03
2019-01-05T16:36:07.604Z,101656.56
2019-01-05T16:38:42.149Z,101659.59
2019-01-05T16:41:24.690Z,101655.84
2019-01-05T16:43:58.921Z,101656.70
2019-01-05T16:46:46.292Z,101657.48
2019-01-05T16:49:16.913Z,101658.42
2019-01-05T16:51:53.436Z,101660.63
2019-01-05T16:54:26.644Z,101660.47
2019-01-05T16:57:00.193Z,101651.28
2019-01-05T16:59:33.985Z,101660.74
2019-01-05T17:02:04.502Z,101662.06
2019-01-05T17:04:41.363Z,101657.27
2019-01-05T17:07:28.220Z,101653.15
2019-01-05T17:10:06.521Z,101655.92
2019-01-05T17:12:40.767Z,101653.45
2019-01-05T17:15:20.010Z,101661.13
2019-01-05T17:17:50.404Z,101659.20
2019-01-05T17:20:24.011Z,101663.23
2019-01-05T17:22:57.336Z,101666.73
2019-01-05T17:25:31.356Z,101667.13
2019-01-05T17:28:01.953Z,101671.55
2019-01-05T17:30:41.970Z,101672.14
2019-01-05T17:33:29.311Z,101676.13
2019-01-05T17:36:04.879Z,101679.20
2019-01-05T17:38:47.235Z,101680.75
2019-01-05T17:41:17.718Z,101680.69
2019-01-05T17:43:48.536Z,101681.49
2019-01-05T17:46:18.903Z,101684.52
2019-01-05T17:48:57.904Z,101684.12
2019-01-05T17:51:37.272Z,101684.75
2019-01-05T17:54:23.928Z,101687.27
2019-01-05T17:56:58.789Z,101686.64
2019-01-05T17:59:49.636Z,101691.70
2019-01-05T18:02:20.060Z,101695.35
2019-01-05T18:04:59.130Z,101693.16
2019-01-05T18:07:29.788Z,101698.01
2019-01-05T18:10:05.808Z,101704.49
2019-01-05T18:12:52.580Z,101705.31
2019-01-05T18:15:23.001Z,101701.36
2019-01-05T18:17:56.740Z,101705.55
2019-01-05T18:20:34.074Z,101703.34
2019-01-05T18:23:11.676Z,101704.28
2019-01-05T18:25:43.531Z,101711.32
2019-01-05T18:28:30.813Z,101711.53
2019-01-05T18:31:10.010Z,101715.28
2019-01-05T18:33:40.725Z,101711.09
2019-01-05T18:36:26.367Z,101722.39
2019-01-05T18:39:19.159Z,101730.92
2019-01-05T18:41:51.749Z,101731.30
2019-01-05T18:44:23.836Z,101743.53
2019-01-05T18:46:57.009Z,101750.09
2019-01-05T18:49:38.230Z,101757.05
2019-01-05T18:52:25.005Z,101755.57
2019-01-05T18:55:08.922Z,101755.49
2019-01-05T18:57:57.239Z,101767.69
2019-01-05T19:00:36.646Z,101771.07
2019-01-05T19:03:24.867Z,101776.81
2019-01-05T19:05:57.823Z,101780.64
2019-01-05T19:08:30.956Z,101778.05
2019-01-05T19:11:02.780Z,101777.79
2019-01-05T19:13:45.562Z,101777.83
2019-01-05T19:16:31.327Z,101777.09
2019-01-05T19:19:04.636Z,101780.42
2019-01-05T19:21:35.099Z,101777.43
2019-01-05T19:24:20.756Z,101777.74
2019-01-05T19:27:08.918Z,101787.96
2019-01-05T19:29:41.676Z,101789.98
2019-01-05T19:32:11.970Z,101794.67
2019-01-05T19:34:44.892Z,101796.56
2019-01-05T19:37:15.332Z,101802.53
2019-01-05T19:39:48.506Z,101798.38
2019-01-05T19:42:35.919Z,101798.84
2019-01-05T19:45:09.466Z,101810.12
2019-01-05T19:47:57.540Z,101812.30
2019-01-05T19:50:31.174Z,101820.05
2019-01-05T19:53:02.165Z,101820.80
2019-01-05T19:55:55.706Z,101816.20
2019-01-05T19:58:45.092Z,101833.02
2019-01-05T20:01:27.657Z,101832.38
2019-01-05T20:03:57.961Z,101831.54
2019-01-05T20:06:35.025Z,101830.43
2019-01-05T20:09:08.226Z,101838.64
2019-01-05T20:11:55.651Z,101845.72
2019-01-05T20:14:26.144Z,101840.06
2019-01-05T20:17:02.760Z,101845.52
2019-01-05T20:19:39.829Z,101846.71
2019-01-05T20:22:23.533Z,101850.57
2019-01-05T20:24:53.960Z,101857.30
2019-01-05T20:27:40.773Z,101853.98
2019-01-05T20:30:26.816Z,101851.70
2019-01-05T20:32:59.838Z,101857.44
2019-01-05T20:35:34.023Z,101857.16
2019-01-05T20:38:22.763Z,101856.55
2019-01-05T20:41:05.131Z,101861.23
2019-01-05T20:43:51.793Z,101859.41
2019-01-05T20:46:28.063Z,101856.41
2019-01-05T20:49:00.064Z,101856.56
2019-01-05T20:51:33.561Z,101857.77
2019-01-05T20:54:11.335Z,101865.14
2019-01-05T20:56:41.656Z,101865.60
2019-01-05T20:59:18.550Z,101870.16
2019-01-05T21:02:05.421Z,101880.96
2019-01-05T21:04:37.799Z,101882.30
2019-01-05T21:07:18.313Z,101882.57
2019-01-05T21:09:48.588Z,101884.76
2019-01-05T21:12:28.224Z,101882.34
2019-01-05T21:15:01.966Z,101887.19
2019-01-05T21:17:41.695Z,101885.66
2019-01-05T21:20:14.292Z,101890.50
2019-01-05T21:22:58.256Z,101886.44
2019-01-05T21:25:47.089Z,101889.16
2019-01-05T21:28:28.745Z,101888.31
2019-01-05T21:30:59.166Z,101890.51
2019-01-05T21:33:47.200Z,101894.68
2019-01-05T21:36:23.931Z,101891.61
2019-01-05T21:39:12.500Z,101893.94
2019-01-05T21:41:59.441Z,101894.77
2019-01-05T21:44:48.251Z,101896.60
2019-01-05T21:47:24.567Z,101902.95
2019-01-05T21:50:13.031Z,101909.45
2019-01-05T21:52:58.484Z,101916.84
2019-01-05T21:55:45.204Z,101915.94
2019-01-05T21:58:23.224Z,101918.48
2019-01-05T22:00:59.019Z,101919.44
2019-01-05T22:03:38.780Z,101918.81
2019-01-05T22:06:27.283Z,101918.86
2019-01-05T22:09:12.859Z,101921.58
2019-01-05T22:11:46.588Z,101926.98
2019-01-05T22:14:26.133Z,101927.41
2019-01-05T22:17:14.362Z,101929.08
2019-01-05T22:20:01.482Z,101926.89
2019-01-05T22:22:41.960Z,101920.88
2019-01-05T22:25:24.636Z,101918.28
2019-01-05T22:28:12.248Z,101921.92
2019-01-05T22:30:48.303Z,101917.32
2019-01-05T22:33:29.521Z,101925.53
2019-01-05T22:36:02.231Z,101930.62
2019-01-05T22:38:33.600Z,101923.77
2019-01-05T22:41:09.985Z,101925.52
2019-01-05T22:43:41.756Z,101923.12
2019-01-05T22:46:30.047Z,101927.67
2019-01-05T22:49:09.014Z,101930.20
2019-01-05T22:51:57.695Z,101930.95
2019-01-05T22:54:39.449Z,101931.48
2019-01-05T22:57:26.504Z,101931.69
2019-01-05T23:00:10.138Z,101937.95
2019-01-05T23:02:53.887Z,101935.60
2019-01-05T23:05:24.202Z,101935.97
2019-01-05T23:07:54.775Z,101938.66
2019-01-05T23:10:42.941Z,101936.67
2019-01-05T23:13:13.409Z,101945.75
2019-01-05T23:15:44.246Z,101943.50
2019-01-05T23:18:33.085Z,101948.20
2019-01-05T23:21:06.607Z,101950.64
2019-01-05T23:23:39.595Z,101950.59
2019-01-05T23:26:10.261Z,101951.45
2019-01-05T23:28:44.512Z,101953.16
2019-01-05T23:31:23.715Z,101952.00
2019-01-05T23:34:11.320Z,101952.60
2019-01-05T23:36:58.154Z,101950.78
2019-01-05T23:39:40.099Z,101954.02
2019-01-05T23:42:10.373Z,101954.80
2019-01-05T23:44:52.533Z,101953.78
2019-01-05T23:47:40.955Z,101949.23
2019-01-05T23:50:12.165Z,101951.54
2019-01-05T23:52:57.488Z,101952.77
2019-01-05T23:55:42.969Z,101944.11
2019-01-05T23:58:42.839Z,101945.98
